createdAt,value
2022-11-14T00:01:01.602Z,101420.03
2022-11-14T00:03:53.480Z,101417.17
2022-11-14T00:06:44.575Z,101424.66
2022-11-14T00:09:35.648Z,101424.02
2022-11-14T00:12:26.433Z,101420.63
2022-11-14T00:15:18.464Z,101419.30
2022-11-14T00:18:09.983Z,101421.48
2022-11-14T00:21:01.080Z,101418.45
2022-11-14T00:23:52.161Z,101421.11
2022-11-14T00:26:43.098Z,101421.89
2022-11-14T00:29:33.766Z,101417.13
2022-11-14T00:32:24.137Z,101414.48
2022-11-14T00:35:15.097Z,101413.44
2022-11-14T00:38:05.722Z,101410.78
2022-11-14T00:40:56.201Z,101408.05
2022-11-14T00:43:46.773Z,101407.15
2022-11-14T00:46:38.625Z,101402.93
2022-11-14T00:49:29.019Z,101398.61
2022-11-14T00:52:19.747Z,101396.94
2022-11-14T00:55:11.859Z,101397.14
2022-11-14T00:58:02.638Z,101395.67
2022-11-14T01:00:54.668Z,101393.74
2022-11-14T01:03:48.313Z,101388.58
2022-11-14T01:06:38.483Z,101382.66
2022-11-14T01:09:29.368Z,101382.27
2022-11-14T01:12:20.164Z,101381.41
2022-11-14T01:15:12.129Z,101372.98
2022-11-14T01:18:02.936Z,101371.64
2022-11-14T01:20:54.070Z,101371.06
2022-11-14T01:23:44.981Z,101366.98
2022-11-14T01:26:36.073Z,101363.16
2022-11-14T01:29:27.076Z,101362.61
2022-11-14T01:32:18.037Z,101354.71
2022-11-14T01:35:09.251Z,101352.00
2022-11-14T01:38:00.186Z,101349.44
2022-11-14T01:40:51.038Z,101347.06
2022-11-14T01:43:42.696Z,101342.70
2022-11-14T01:46:37.924Z,101338.82
2022-11-14T01:49:33.823Z,101335.08
2022-11-14T01:52:27.033Z,101328.64
2022-11-14T01:55:17.893Z,101322.27
2022-11-14T01:58:09.669Z,101322.63
2022-11-14T02:01:00.937Z,101321.30
2022-11-14T02:03:54.689Z,101324.71
2022-11-14T02:06:46.118Z,101324.19
2022-11-14T02:09:39.475Z,101321.20
2022-11-14T02:12:30.198Z,101319.85
2022-11-14T02:15:21.268Z,101320.96
2022-11-14T02:18:12.730Z,101316.84
2022-11-14T02:21:03.410Z,101318.36
2022-11-14T02:23:54.110Z,101316.45
2022-11-14T02:26:45.684Z,101318.44
2022-11-14T02:29:37.361Z,101314.79
2022-11-14T02:32:28.454Z,101312.77
2022-11-14T02:35:23.578Z,101312.76
2022-11-14T02:38:14.563Z,101309.50
2022-11-14T02:41:05.673Z,101309.32
2022-11-14T02:43:56.303Z,101306.23
2022-11-14T02:46:47.054Z,101306.67
2022-11-14T02:49:37.681Z,101298.25
2022-11-14T02:52:28.689Z,101297.10
2022-11-14T02:55:19.094Z,101294.52
2022-11-14T02:58:10.021Z,101288.50
2022-11-14T03:01:19.596Z,101288.20
2022-11-14T03:04:11.038Z,101285.05
2022-11-14T03:07:01.773Z,101283.30
2022-11-14T03:09:52.238Z,101283.13
2022-11-14T03:12:42.759Z,101277.48
2022-11-14T03:15:33.303Z,101278.59
2022-11-14T03:18:24.036Z,101278.38
2022-11-14T03:21:16.329Z,101276.28
2022-11-14T03:24:07.898Z,101271.70
2022-11-14T03:26:58.627Z,101268.88
2022-11-14T03:29:49.134Z,101268.73
2022-11-14T03:32:39.981Z,101268.61
2022-11-14T03:35:30.685Z,101268.89
2022-11-14T03:38:23.219Z,101270.02
2022-11-14T03:41:13.782Z,101268.92
2022-11-14T03:44:04.819Z,101264.91
2022-11-14T03:46:55.223Z,101262.33
2022-11-14T03:49:45.845Z,101268.20
2022-11-14T03:52:36.671Z,101264.19
2022-11-14T03:55:27.297Z,101263.86
2022-11-14T03:58:17.972Z,101263.46
2022-11-14T04:01:08.769Z,101263.08
2022-11-14T04:03:59.608Z,101257.85
2022-11-14T04:06:49.862Z,101255.65
2022-11-14T04:09:40.784Z,101251.31
2022-11-14T04:12:31.661Z,101248.12
2022-11-14T04:15:22.713Z,101246.60
2022-11-14T04:18:13.200Z,101240.77
2022-11-14T04:21:03.724Z,101239.13
2022-11-14T04:23:54.683Z,101239.36
2022-11-14T04:26:45.079Z,101238.03
2022-11-14T04:29:35.812Z,101238.56
2022-11-14T04:32:26.790Z,101229.27
2022-11-14T04:35:17.546Z,101225.55
2022-11-14T04:38:07.967Z,101227.70
2022-11-14T04:40:59.260Z,101222.76
2022-11-14T04:43:50.929Z,101214.20
2022-11-14T04:46:41.630Z,101211.52
2022-11-14T04:49:32.212Z,101207.78
2022-11-14T04:52:22.776Z,101205.73
2022-11-14T04:55:13.311Z,101204.93
2022-11-14T04:58:03.934Z,101201.37
2022-11-14T05:00:54.868Z,101203.83
2022-11-14T05:03:45.497Z,101203.86
2022-11-14T05:06:36.275Z,101204.64
2022-11-14T05:09:26.976Z,101200.18
2022-11-14T05:12:17.398Z,101198.58
2022-11-14T05:15:10.964Z,101199.84
2022-11-14T05:18:01.595Z,101188.58
2022-11-14T05:20:51.915Z,101193.77
2022-11-14T05:23:42.572Z,101190.80
2022-11-14T05:26:33.406Z,101190.89
2022-11-14T05:29:24.485Z,101189.66
2022-11-14T05:32:16.460Z,101194.49
2022-11-14T05:35:09.716Z,101190.72
2022-11-14T05:38:03.144Z,101190.92
2022-11-14T05:40:53.848Z,101191.00
2022-11-14T05:43:45.446Z,101197.45
2022-11-14T05:46:36.074Z,101193.77
2022-11-14T05:49:27.059Z,101190.06
2022-11-14T05:52:17.865Z,101188.95
2022-11-14T05:55:10.383Z,101189.39
2022-11-14T05:58:01.931Z,101192.52
2022-11-14T06:00:54.578Z,101196.86
2022-11-14T06:03:48.687Z,101196.56
2022-11-14T06:06:39.235Z,101194.77
2022-11-14T06:09:30.030Z,101200.95
2022-11-14T06:12:20.874Z,101199.10
2022-11-14T06:15:12.871Z,101199.27
2022-11-14T06:18:03.412Z,101206.14
2022-11-14T06:20:54.108Z,101205.63
2022-11-14T06:23:45.403Z,101208.97
2022-11-14T06:26:36.412Z,101211.20
2022-11-14T06:29:31.337Z,101215.39
2022-11-14T06:32:24.905Z,101217.49
2022-11-14T06:35:15.302Z,101218.45
2022-11-14T06:38:06.136Z,101213.33
2022-11-14T06:41:04.643Z,101221.06
2022-11-14T06:43:55.345Z,101217.29
2022-11-14T06:46:46.282Z,101216.23
2022-11-14T06:49:40.526Z,101216.58
2022-11-14T06:52:31.884Z,101218.70
2022-11-14T06:55:25.562Z,101218.45
2022-11-14T06:58:16.569Z,101216.38
2022-11-14T07:01:09.420Z,101215.84
2022-11-14T07:04:00.761Z,101214.64
2022-11-14T07:06:51.345Z,101215.95
2022-11-14T07:09:42.320Z,101211.79
2022-11-14T07:12:32.992Z,101214.44
2022-11-14T07:15:23.753Z,101215.44
2022-11-14T07:18:15.063Z,101213.63
2022-11-14T07:21:07.491Z,101210.08
2022-11-14T07:23:58.958Z,101216.29
2022-11-14T07:26:49.712Z,101210.27
2022-11-14T07:29:40.417Z,101208.50
2022-11-14T07:32:30.862Z,101202.58
2022-11-14T07:35:21.717Z,101200.91
2022-11-14T07:38:12.368Z,101198.38
2022-11-14T07:41:05.377Z,101206.28
2022-11-14T07:43:57.307Z,101208.02
2022-11-14T07:46:48.421Z,101207.43
2022-11-14T07:49:39.354Z,101204.11
2022-11-14T07:52:31.497Z,101205.38
2022-11-14T07:55:23.242Z,101205.90
2022-11-14T07:58:13.843Z,101195.46
2022-11-14T08:01:05.770Z,101200.27
2022-11-14T08:03:56.400Z,101196.09
2022-11-14T08:06:46.923Z,101190.01
2022-11-14T08:09:37.474Z,101190.14
2022-11-14T08:12:28.099Z,101197.25
2022-11-14T08:15:19.878Z,101192.09
2022-11-14T08:18:10.273Z,101186.32
2022-11-14T08:21:00.721Z,101178.83
2022-11-14T08:23:51.166Z,101169.23
2022-11-14T08:26:41.947Z,101167.33
2022-11-14T08:29:32.728Z,101169.48
2022-11-14T08:32:23.428Z,101172.52
2022-11-14T08:35:13.979Z,101173.27
2022-11-14T08:38:04.975Z,101176.46
2022-11-14T08:40:58.766Z,101170.02
2022-11-14T08:43:49.492Z,101178.13
2022-11-14T08:46:39.913Z,101177.30
2022-11-14T08:49:31.026Z,101173.52
2022-11-14T08:52:22.239Z,101169.56
2022-11-14T08:55:13.048Z,101163.56
2022-11-14T08:58:03.800Z,101166.80
2022-11-14T09:00:54.284Z,101167.77
2022-11-14T09:03:45.625Z,101162.95
2022-11-14T09:06:36.318Z,101163.54
2022-11-14T09:09:27.123Z,101161.48
2022-11-14T09:12:18.286Z,101158.69
2022-11-14T09:15:12.381Z,101158.28
2022-11-14T09:18:02.790Z,101156.11
2022-11-14T09:20:53.262Z,101154.33
2022-11-14T09:23:43.898Z,101148.48
2022-11-14T09:26:35.057Z,101143.80
2022-11-14T09:29:25.830Z,101137.96
2022-11-14T09:32:16.816Z,101135.89
2022-11-14T09:35:08.784Z,101131.27
2022-11-14T09:38:07.206Z,101130.95
2022-11-14T09:41:13.014Z,101128.97
2022-11-14T09:44:10.966Z,101134.70
2022-11-14T09:47:03.995Z,101132.36
2022-11-14T09:50:02.290Z,101136.95
2022-11-14T09:52:58.071Z,101140.45
2022-11-14T09:55:49.236Z,101137.77
2022-11-14T09:58:41.299Z,101136.60
2022-11-14T10:01:39.871Z,101132.98
2022-11-14T10:04:45.357Z,101126.41
2022-11-14T10:07:47.682Z,101127.99
2022-11-14T10:10:51.338Z,101125.36
2022-11-14T10:14:04.211Z,101119.29
2022-11-14T10:17:10.717Z,101114.17
2022-11-14T10:20:11.321Z,101112.92
2022-11-14T10:23:17.714Z,101108.20
2022-11-14T10:26:16.717Z,101102.69
2022-11-14T10:29:36.881Z,101094.80
2022-11-14T10:32:43.329Z,101094.52
2022-11-14T10:35:40.396Z,101092.81
2022-11-14T10:38:36.384Z,101085.67
2022-11-14T10:41:54.909Z,101082.30
2022-11-14T10:44:46.410Z,101081.11
2022-11-14T10:47:41.143Z,101081.77
2022-11-14T10:50:39.411Z,101076.86
2022-11-14T10:53:39.524Z,101069.73
2022-11-14T10:56:30.724Z,101064.85
2022-11-14T10:59:22.195Z,101059.98
2022-11-14T11:02:13.308Z,101053.80
2022-11-14T11:05:19.833Z,101053.89
2022-11-14T11:08:47.690Z,101045.63
2022-11-14T11:11:41.996Z,101050.76
2022-11-14T11:14:33.208Z,101044.17
2022-11-14T11:17:31.379Z,101042.38
2022-11-14T11:20:32.740Z,101033.42
2022-11-14T11:23:27.258Z,101031.23
2022-11-14T11:26:24.848Z,101026.89
2022-11-14T11:29:20.948Z,101025.13
2022-11-14T11:32:12.089Z,101019.56
2022-11-14T11:35:05.248Z,101018.21
2022-11-14T11:38:00.282Z,101018.84
2022-11-14T11:40:55.516Z,101021.36
2022-11-14T11:43:47.135Z,101019.54
2022-11-14T11:46:47.261Z,101011.70
2022-11-14T11:49:50.060Z,101007.69
2022-11-14T11:52:51.244Z,101004.85
2022-11-14T11:55:45.301Z,101005.34
2022-11-14T11:58:44.837Z,101001.50
2022-11-14T12:01:35.666Z,101002.81
2022-11-14T12:04:27.393Z,101009.27
2022-11-14T12:07:23.338Z,101003.67
2022-11-14T12:10:22.932Z,101002.54
2022-11-14T12:13:43.535Z,101005.30
2022-11-14T12:16:58.635Z,101013.07
2022-11-14T12:20:10.125Z,101012.27
2022-11-14T12:23:26.070Z,101005.30
2022-11-14T12:26:36.667Z,100999.67
2022-11-14T12:29:46.057Z,101000.31
2022-11-14T12:32:43.339Z,100995.96
2022-11-14T12:35:36.553Z,100996.20
2022-11-14T12:38:31.602Z,100991.75
2022-11-14T12:41:28.373Z,100986.20
2022-11-14T12:44:33.500Z,100981.52
2022-11-14T12:47:26.549Z,100979.63
2022-11-14T12:50:43.642Z,100976.77
2022-11-14T12:53:45.101Z,100974.35
2022-11-14T12:57:05.286Z,100977.77
2022-11-14T13:00:05.881Z,100975.23
2022-11-14T13:03:22.210Z,100974.25
2022-11-14T13:06:19.621Z,100975.38
2022-11-14T13:09:32.395Z,100977.79
2022-11-14T13:12:48.510Z,100971.02
2022-11-14T13:16:09.760Z,100967.79
2022-11-14T13:19:30.844Z,100964.68
2022-11-14T13:22:39.161Z,100958.86
2022-11-14T13:25:29.806Z,100953.13
2022-11-14T13:28:48.673Z,100951.23
2022-11-14T13:31:51.567Z,100947.73
2022-11-14T13:34:48.206Z,100943.40
2022-11-14T13:38:03.254Z,100945.98
2022-11-14T13:41:03.020Z,100946.30
2022-11-14T13:44:21.185Z,100949.83
2022-11-14T13:47:30.276Z,100945.17
2022-11-14T13:50:26.586Z,100939.10
2022-11-14T13:53:23.944Z,100937.40
2022-11-14T13:56:35.488Z,100934.00
2022-11-14T13:59:46.713Z,100929.50
2022-11-14T14:03:01.772Z,100923.77
2022-11-14T14:06:21.272Z,100925.94
2022-11-14T14:09:21.728Z,100922.38
2022-11-14T14:12:31.299Z,100920.86
2022-11-14T14:15:31.453Z,100919.45
2022-11-14T14:18:33.657Z,100912.39
2022-11-14T14:21:36.354Z,100910.92
2022-11-14T14:24:41.204Z,100904.63
2022-11-14T14:27:39.142Z,100900.02
2022-11-14T14:30:29.961Z,100894.02
2022-11-14T14:33:20.644Z,100882.52
2022-11-14T14:36:25.714Z,100880.80
2022-11-14T14:39:21.277Z,100877.95
2022-11-14T14:42:14.461Z,100877.16
2022-11-14T14:45:06.879Z,100877.95
2022-11-14T14:48:05.084Z,100876.48
2022-11-14T14:50:57.349Z,100869.86
2022-11-14T14:53:55.141Z,100868.09
2022-11-14T14:56:55.832Z,100863.27
2022-11-14T14:59:46.582Z,100867.73
2022-11-14T15:02:37.515Z,100874.64
2022-11-14T15:05:30.558Z,100872.06
2022-11-14T15:08:21.355Z,100868.58
2022-11-14T15:11:12.593Z,100864.33
2022-11-14T15:14:04.347Z,100863.29
2022-11-14T15:16:56.507Z,100865.83
2022-11-14T15:19:48.750Z,100862.09
2022-11-14T15:22:39.347Z,100857.23
2022-11-14T15:25:30.230Z,100855.27
2022-11-14T15:28:22.673Z,100849.75
2022-11-14T15:31:20.978Z,100850.41
2022-11-14T15:34:26.813Z,100846.70
2022-11-14T15:37:25.067Z,100848.72
2022-11-14T15:40:21.737Z,100849.80
2022-11-14T15:43:39.190Z,100857.19
2022-11-14T15:46:40.166Z,100845.42
2022-11-14T15:49:31.171Z,100841.27
2022-11-14T15:52:25.891Z,100842.20
2022-11-14T15:55:18.822Z,100840.05
2022-11-14T15:58:27.873Z,100841.73
2022-11-14T16:01:24.192Z,100843.08
2022-11-14T16:04:18.500Z,100841.75
2022-11-14T16:07:11.388Z,100840.08
2022-11-14T16:10:02.130Z,100837.89
2022-11-14T16:12:53.082Z,100832.95
2022-11-14T16:15:43.513Z,100833.55
2022-11-14T16:18:33.864Z,100826.80
2022-11-14T16:21:24.586Z,100826.22
2022-11-14T16:24:21.306Z,100825.75
2022-11-14T16:27:12.034Z,100824.38
2022-11-14T16:30:02.893Z,100823.52
2022-11-14T16:32:54.669Z,100821.01
2022-11-14T16:35:45.885Z,100819.66
2022-11-14T16:38:36.199Z,100812.02
2022-11-14T16:41:26.636Z,100810.16
2022-11-14T16:44:18.742Z,100813.29
2022-11-14T16:47:09.693Z,100812.83
2022-11-14T16:50:01.547Z,100802.98
2022-11-14T16:52:52.457Z,100801.66
2022-11-14T16:55:47.483Z,100800.80
2022-11-14T16:58:40.055Z,100794.87
2022-11-14T17:01:30.446Z,100789.47
2022-11-14T17:04:21.103Z,100786.13
2022-11-14T17:07:13.467Z,100789.27
2022-11-14T17:10:05.242Z,100792.05
2022-11-14T17:12:55.618Z,100787.29
2022-11-14T17:15:46.605Z,100779.73
2022-11-14T17:18:38.995Z,100780.99
2022-11-14T17:21:30.229Z,100775.45
2022-11-14T17:24:20.633Z,100780.73
2022-11-14T17:27:13.044Z,100775.84
2022-11-14T17:30:04.258Z,100773.51
2022-11-14T17:32:56.661Z,100771.15
2022-11-14T17:35:47.362Z,100777.67
2022-11-14T17:38:38.973Z,100777.70
2022-11-14T17:41:29.901Z,100775.11
2022-11-14T17:44:20.465Z,100773.14
2022-11-14T17:47:10.914Z,100771.95
2022-11-14T17:50:01.637Z,100767.70
2022-11-14T17:52:52.272Z,100769.75
2022-11-14T17:55:42.897Z,100768.18
2022-11-14T17:58:35.059Z,100770.56
2022-11-14T18:01:28.819Z,100761.73
2022-11-14T18:04:19.777Z,100760.46
2022-11-14T18:07:10.521Z,100761.75
2022-11-14T18:10:01.291Z,100764.63
2022-11-14T18:12:51.681Z,100755.54
2022-11-14T18:15:41.869Z,100750.40
2022-11-14T18:18:34.306Z,100754.79
2022-11-14T18:21:26.586Z,100754.25
2022-11-14T18:24:17.355Z,100749.11
2022-11-14T18:27:08.279Z,100750.30
2022-11-14T18:30:13.408Z,100746.27
2022-11-14T18:33:04.224Z,100746.66
2022-11-14T18:36:02.070Z,100744.30
2022-11-14T18:38:53.157Z,100750.20
2022-11-14T18:41:44.397Z,100746.60
2022-11-14T18:44:34.900Z,100742.50
2022-11-14T18:47:25.495Z,100735.75
2022-11-14T18:50:16.848Z,100740.45
2022-11-14T18:53:07.490Z,100741.00
2022-11-14T18:55:58.885Z,100740.33
2022-11-14T18:58:53.223Z,100736.23
2022-11-14T19:01:43.992Z,100730.47
2022-11-14T19:04:35.241Z,100734.19
2022-11-14T19:07:26.320Z,100735.34
2022-11-14T19:10:16.983Z,100729.48
2022-11-14T19:13:07.734Z,100735.14
2022-11-14T19:16:03.713Z,100731.47
2022-11-14T19:18:54.080Z,100727.66
2022-11-14T19:21:45.014Z,100725.86
2022-11-14T19:24:35.743Z,100726.84
2022-11-14T19:27:26.499Z,100725.90
2022-11-14T19:30:18.225Z,100727.17
2022-11-14T19:33:09.183Z,100720.94
2022-11-14T19:36:05.469Z,100721.23
2022-11-14T19:38:58.397Z,100720.36
2022-11-14T19:41:49.155Z,100714.59
2022-11-14T19:44:39.495Z,100713.09
2022-11-14T19:47:29.828Z,100711.00
2022-11-14T19:50:20.670Z,100710.05
2022-11-14T19:53:11.426Z,100703.83
2022-11-14T19:56:07.440Z,100705.13
2022-11-14T19:58:57.773Z,100702.83
2022-11-14T20:01:55.608Z,100694.09
2022-11-14T20:04:47.941Z,100696.85
2022-11-14T20:07:38.710Z,100694.50
2022-11-14T20:10:29.390Z,100688.34
2022-11-14T20:13:19.889Z,100686.26
2022-11-14T20:16:14.173Z,100684.54
2022-11-14T20:19:05.387Z,100684.02
2022-11-14T20:21:56.321Z,100683.56
2022-11-14T20:24:46.983Z,100678.78
2022-11-14T20:27:37.725Z,100681.02
2022-11-14T20:30:28.508Z,100678.33
2022-11-14T20:33:19.106Z,100672.66
2022-11-14T20:36:13.323Z,100670.79
2022-11-14T20:39:03.918Z,100668.77
2022-11-14T20:41:54.374Z,100662.42
2022-11-14T20:44:45.380Z,100654.83
2022-11-14T20:47:36.770Z,100650.11
2022-11-14T20:50:27.649Z,100639.77
2022-11-14T20:53:18.432Z,100640.82
2022-11-14T20:56:10.643Z,100636.21
2022-11-14T20:59:01.474Z,100630.71
2022-11-14T21:01:52.705Z,100627.95
2022-11-14T21:04:43.623Z,100625.19
2022-11-14T21:07:34.651Z,100621.85
2022-11-14T21:10:43.305Z,100614.24
2022-11-14T21:13:53.008Z,100620.73
2022-11-14T21:16:44.170Z,100610.52
2022-11-14T21:19:35.382Z,100610.75
2022-11-14T21:22:26.266Z,100613.31
2022-11-14T21:25:16.839Z,100603.52
2022-11-14T21:28:07.484Z,100603.81
2022-11-14T21:31:00.771Z,100599.44
2022-11-14T21:33:53.637Z,100600.05
2022-11-14T21:36:46.081Z,100604.78
2022-11-14T21:39:37.446Z,100596.51
2022-11-14T21:42:28.180Z,100591.40
2022-11-14T21:45:19.108Z,100584.41
2022-11-14T21:48:09.917Z,100578.98
2022-11-14T21:51:07.580Z,100578.42
2022-11-14T21:54:00.051Z,100581.21
2022-11-14T21:56:50.702Z,100579.15
2022-11-14T21:59:41.717Z,100578.77
2022-11-14T22:02:49.639Z,100578.15
2022-11-14T22:05:39.762Z,100574.64
2022-11-14T22:08:30.739Z,100569.98
2022-11-14T22:11:21.520Z,100568.41
2022-11-14T22:14:12.325Z,100570.30
2022-11-14T22:17:04.432Z,100569.33
2022-11-14T22:19:55.548Z,100564.07
2022-11-14T22:23:13.925Z,100562.36
2022-11-14T22:26:04.909Z,100557.24
2022-11-14T22:28:55.928Z,100555.32
2022-11-14T22:31:46.821Z,100562.11
2022-11-14T22:34:41.895Z,100556.35
2022-11-14T22:37:39.183Z,100554.84
2022-11-14T22:40:32.478Z,100549.86
2022-11-14T22:43:23.608Z,100546.59
2022-11-14T22:46:17.001Z,100541.59
2022-11-14T22:49:17.128Z,100540.93
2022-11-14T22:52:13.850Z,100537.05
2022-11-14T22:55:05.059Z,100535.27
2022-11-14T22:57:58.011Z,100527.39
2022-11-14T23:00:51.949Z,100523.71
2022-11-14T23:03:45.735Z,100524.85
2022-11-14T23:06:37.754Z,100518.29
2022-11-14T23:09:32.459Z,100516.42
2022-11-14T23:12:23.571Z,100515.41
2022-11-14T23:15:16.494Z,100512.71
2022-11-14T23:18:12.274Z,100510.30
2022-11-14T23:21:08.623Z,100505.30
2022-11-14T23:24:01.557Z,100502.34
2022-11-14T23:26:52.748Z,100499.75
2022-11-14T23:29:45.707Z,100502.80
2022-11-14T23:32:37.964Z,100498.86
2022-11-14T23:35:28.895Z,100495.36
2022-11-14T23:38:20.312Z,100495.52
2022-11-14T23:41:18.827Z,100494.05
2022-11-14T23:44:09.629Z,100498.55
2022-11-14T23:47:02.712Z,100494.55
2022-11-14T23:49:53.006Z,100490.83
2022-11-14T23:52:43.862Z,100489.42
2022-11-14T23:55:34.877Z,100488.51
2022-11-14T23:58:27.144Z,100485.35
